Las Vegas, Nevada
Traffic Map
Current Weather Conditions
Las Vegas, Nevada
Clear
Clear
32°
Feels Like: 32°
Wind Chill: 32° Ceiling: Unl
Heat Index: 32° Visibility: 10mi
Dew Point: Wind: 7mph
Humidity: 16% Direction: 160° (SSE)
Pressure: 29.88in Gusts: 0mph
Raw Report DataKLAS 041456Z 16006KT 10SM CLR 32/03 A2988 RMK AO2 SLP085 T03170033 51017
Traffic Incident Summary
Active as of:
Severity:
Category:
InformationThere was an issue retrieving the traffic information for this location. Please try a different location or try again shortly.
Advertisements
Track Severe Weather on mobile